sensor_id;sensor_type;location;lat;lon;timestamp;pressure;altitude;pressure_sealevel;temperature;humidity
38225;BME280;24025;48.138;11.428;2022-12-18T14:21:30;96688.84;;;-3.20;79.06
38225;BME280;24025;48.138;11.428;2022-12-18T14:24:21;96689.19;;;-3.17;79.92
38225;BME280;24025;48.138;11.428;2022-12-18T14:26:52;96695.44;;;-3.18;78.04
38225;BME280;24025;48.138;11.428;2022-12-18T14:29:29;96686.56;;;-3.17;79.18
38225;BME280;24025;48.138;11.428;2022-12-18T14:32:08;96689.81;;;-3.04;79.66
38225;BME280;24025;48.138;11.428;2022-12-18T14:34:39;96680.47;;;-3.00;78.70
38225;BME280;24025;48.138;11.428;2022-12-18T14:37:11;96683.94;;;-2.90;78.75
38225;BME280;24025;48.138;11.428;2022-12-18T14:39:53;96684.22;;;-2.91;77.61
38225;BME280;24025;48.138;11.428;2022-12-18T14:42:26;96686.00;;;-2.92;77.72
38225;BME280;24025;48.138;11.428;2022-12-18T14:48:15;96693.03;;;-2.92;77.72
38225;BME280;24025;48.138;11.428;2022-12-18T14:50:55;96687.88;;;-2.87;78.58
38225;BME280;24025;48.138;11.428;2022-12-18T14:53:39;96681.88;;;-2.88;78.18
38225;BME280;24025;48.138;11.428;2022-12-18T14:56:20;96687.09;;;-2.88;77.56
38225;BME280;24025;48.138;11.428;2022-12-18T14:58:56;96681.03;;;-2.93;77.71
38225;BME280;24025;48.138;11.428;2022-12-18T15:01:30;96687.63;;;-2.86;77.71
38225;BME280;24025;48.138;11.428;2022-12-18T15:04:03;96686.84;;;-2.86;77.39
38225;BME280;24025;48.138;11.428;2022-12-18T15:06:38;96686.00;;;-2.92;77.56
38225;BME280;24025;48.138;11.428;2022-12-18T15:09:22;96690.78;;;-3.10;78.29
38225;BME280;24025;48.138;11.428;2022-12-18T15:12:00;96693.63;;;-3.12;77.75
38225;BME280;24025;48.138;11.428;2022-12-18T15:14:34;96689.22;;;-3.11;78.53
38225;BME280;24025;48.138;11.428;2022-12-18T15:17:14;96689.91;;;-3.21;79.91
38225;BME280;24025;48.138;11.428;2022-12-18T15:19:47;96693.28;;;-3.21;79.48
38225;BME280;24025;48.138;11.428;2022-12-18T15:22:25;96690.44;;;-3.19;79.70
38225;BME280;24025;48.138;11.428;2022-12-18T15:24:57;96686.06;;;-3.14;79.05
38225;BME280;24025;48.138;11.428;2022-12-18T15:27:33;96685.97;;;-3.24;79.05
38225;BME280;24025;48.138;11.428;2022-12-18T15:32:42;96700.88;;;-3.19;79.78
38225;BME280;24025;48.138;11.428;2022-12-18T15:35:19;96701.66;;;-3.19;79.25
38225;BME280;24025;48.138;11.428;2022-12-18T15:37:51;96693.09;;;-3.14;79.54
38225;BME280;24025;48.138;11.428;2022-12-18T15:40:23;96688.84;;;-3.20;78.25
38225;BME280;24025;48.138;11.428;2022-12-18T15:42:54;96688.84;;;-3.20;78.48
38225;BME280;24025;48.138;11.428;2022-12-18T15:45:44;96687.34;;;-3.16;80.01
38225;BME280;24025;48.138;11.428;2022-12-18T15:48:21;96677.75;;;-3.10;79.75
38225;BME280;24025;48.138;11.428;2022-12-18T15:50:53;96680.59;;;-3.12;79.17
38225;BME280;24025;48.138;11.428;2022-12-18T15:53:34;96671.69;;;-3.16;78.23
38225;BME280;24025;48.138;11.428;2022-12-18T15:56:10;96679.13;;;-3.30;78.30
38225;BME280;24025;48.138;11.428;2022-12-18T15:58:59;96672.47;;;-3.43;79.33
38225;BME280;24025;48.138;11.428;2022-12-18T16:01:30;96679.88;;;-3.34;80.30
38225;BME280;24025;48.138;11.428;2022-12-18T16:04:01;96680.69;;;-3.29;79.94
38225;BME280;24025;48.138;11.428;2022-12-18T16:06:32;96680.16;;;-3.31;79.13
38225;BME280;24025;48.138;11.428;2022-12-18T16:09:02;96679.97;;;-3.24;79.65
38225;BME280;24025;48.138;11.428;2022-12-18T16:11:34;96675.78;;;-3.25;79.29
38225;BME280;24025;48.138;11.428;2022-12-18T16:14:20;96678.66;;;-3.27;78.90
38225;BME280;24025;48.138;11.428;2022-12-18T16:16:56;96674.22;;;-3.26;79.63
38225;BME280;24025;48.138;11.428;2022-12-18T16:19:28;96680.44;;;-3.27;79.21
38225;BME280;24025;48.138;11.428;2022-12-18T16:21:58;96678.28;;;-3.35;79.00
38225;BME280;24025;48.138;11.428;2022-12-18T16:24:32;96677.44;;;-3.41;78.94
38225;BME280;24025;48.138;11.428;2022-12-18T16:27:03;96669.31;;;-3.45;79.72
38225;BME280;24025;48.138;11.428;2022-12-18T16:29:33;96678.72;;;-3.44;79.73
38225;BME280;24025;48.138;11.428;2022-12-18T16:32:05;96685.16;;;-3.51;78.92
38225;BME280;24025;48.138;11.428;2022-12-18T16:34:35;96679.75;;;-3.66;79.00
38225;BME280;24025;48.138;11.428;2022-12-18T16:37:07;96685.22;;;-3.68;79.33
38225;BME280;24025;48.138;11.428;2022-12-18T16:39:38;96688.84;;;-3.69;79.65
38225;BME280;24025;48.138;11.428;2022-12-18T16:42:16;96682.25;;;-3.77;79.06
38225;BME280;24025;48.138;11.428;2022-12-18T16:44:49;96678.91;;;-3.72;80.22
38225;BME280;24025;48.138;11.428;2022-12-18T16:47:19;96672.19;;;-3.68;79.45
38225;BME280;24025;48.138;11.428;2022-12-18T16:49:49;96678.44;;;-3.69;79.76
38225;BME280;24025;48.138;11.428;2022-12-18T16:52:22;96686.78;;;-3.67;78.68
38225;BME280;24025;48.138;11.428;2022-12-18T16:54:52;96676.84;;;-3.70;79.06
38225;BME280;24025;48.138;11.428;2022-12-18T16:57:23;96677.16;;;-3.66;79.61
38225;BME280;24025;48.138;11.428;2022-12-18T16:59:53;96682.06;;;-3.70;78.73
38225;BME280;24025;48.138;11.428;2022-12-18T17:02:25;96673.47;;;-3.71;79.31
38225;BME280;24025;48.138;11.428;2022-12-18T17:04:57;96681.66;;;-3.62;79.97
38225;BME280;24025;48.138;11.428;2022-12-18T17:07:27;96678.53;;;-3.59;80.18
38225;BME280;24025;48.138;11.428;2022-12-18T17:09:58;96682.97;;;-3.59;79.79
38225;BME280;24025;48.138;11.428;2022-12-18T17:12:28;96677.22;;;-3.61;nan
38225;BME280;24025;48.138;11.428;2022-12-18T17:14:58;96674.66;;;-3.56;79.85
38225;BME280;24025;48.138;11.428;2022-12-18T17:17:29;96674.91;;;-3.58;79.79
38225;BME280;24025;48.138;11.428;2022-12-18T17:19:59;96669.75;;;-3.53;80.18
38225;BME280;24025;48.138;11.428;2022-12-18T17:22:30;96664.56;;;-3.53;80.22
38225;BME280;24025;48.138;11.428;2022-12-18T17:25:00;96655.47;;;-3.45;79.88
38225;BME280;24025;48.138;11.428;2022-12-18T17:27:31;96660.47;;;-3.44;79.54
38225;BME280;24025;48.138;11.428;2022-12-18T17:30:02;96654.69;;;-3.46;79.02
38225;BME280;24025;48.138;11.428;2022-12-18T17:32:33;96663.56;;;-3.47;79.97
38225;BME280;24025;48.138;11.428;2022-12-18T17:35:03;96667.69;;;-3.51;80.18
38225;BME280;24025;48.138;11.428;2022-12-18T17:37:34;96671.22;;;-3.62;80.63
38225;BME280;24025;48.138;11.428;2022-12-18T17:40:05;96667.09;;;-3.58;80.13
38225;BME280;24025;48.138;11.428;2022-12-18T17:42:35;96668.66;;;-3.57;80.56
38225;BME280;24025;48.138;11.428;2022-12-18T17:45:07;96669.50;;;-3.51;81.03
38225;BME280;24025;48.138;11.428;2022-12-18T17:47:37;96673.16;;;-3.52;80.56
38225;BME280;24025;48.138;11.428;2022-12-18T17:50:08;96671.38;;;-3.47;79.83
38225;BME280;24025;48.138;11.428;2022-12-18T17:52:38;96675.56;;;-3.46;79.65
38225;BME280;24025;48.138;11.428;2022-12-18T17:55:09;96659.91;;;-3.46;80.16
38225;BME280;24025;48.138;11.428;2022-12-18T17:57:39;96656.66;;;-3.58;80.05
38225;BME280;24025;48.138;11.428;2022-12-18T18:00:10;96662.84;;;-3.64;80.60
38225;BME280;24025;48.138;11.428;2022-12-18T18:02:40;96668.63;;;-3.62;80.46
38225;BME280;24025;48.138;11.428;2022-12-18T18:05:13;96659.75;;;-3.61;80.06
38225;BME280;24025;48.138;11.428;2022-12-18T18:07:43;96655.09;;;-3.59;80.56
38225;BME280;24025;48.138;11.428;2022-12-18T18:10:14;96656.16;;;-3.55;80.92
38225;BME280;24025;48.138;11.428;2022-12-18T18:12:44;96659.81;;;-3.56;81.07
38225;BME280;24025;48.138;11.428;2022-12-18T18:15:33;96663.50;;;-3.52;80.42
38225;BME280;24025;48.138;11.428;2022-12-18T18:18:03;96659.56;;;-3.54;80.34
38225;BME280;24025;48.138;11.428;2022-12-18T18:20:38;96666.84;;;-3.56;79.67
38225;BME280;24025;48.138;11.428;2022-12-18T18:23:09;96661.38;;;-3.55;79.94
38225;BME280;24025;48.138;11.428;2022-12-18T18:25:40;96655.34;;;-3.60;79.60
38225;BME280;24025;48.138;11.428;2022-12-18T18:28:11;96660.56;;;-3.60;80.52
38225;BME280;24025;48.138;11.428;2022-12-18T18:30:41;96653.50;;;-3.60;79.98
38225;BME280;24025;48.138;11.428;2022-12-18T18:33:12;96646.22;;;-3.58;80.73
38225;BME280;24025;48.138;11.428;2022-12-18T18:35:42;96653.56;;;-3.55;80.86
38225;BME280;24025;48.138;11.428;2022-12-18T18:38:13;96657.19;;;-3.56;79.43
38225;BME280;24025;48.138;11.428;2022-12-18T18:40:43;96646.66;;;-3.66;80.31
38225;BME280;24025;48.138;11.428;2022-12-18T18:43:13;96665.50;;;-3.59;80.01
38225;BME280;24025;48.138;11.428;2022-12-18T18:45:47;96652.91;;;-3.67;80.57
38225;BME280;24025;48.138;11.428;2022-12-18T18:48:17;96654.84;;;-3.57;80.15
38225;BME280;24025;48.138;11.428;2022-12-18T18:50:57;96643.09;;;-3.60;79.75
38225;BME280;24025;48.138;11.428;2022-12-18T18:53:28;96647.81;;;-3.57;80.18
38225;BME280;24025;48.138;11.428;2022-12-18T18:55:59;96639.44;;;-3.59;80.25
38225;BME280;24025;48.138;11.428;2022-12-18T18:58:29;96635.53;;;-3.61;79.82
38225;BME280;24025;48.138;11.428;2022-12-18T19:01:09;96636.34;;;-3.56;nan
38225;BME280;24025;48.138;11.428;2022-12-18T19:03:41;96631.69;;;-3.76;80.88
38225;BME280;24025;48.138;11.428;2022-12-18T19:06:18;96627.34;;;-3.70;80.51
38225;BME280;24025;48.138;11.428;2022-12-18T19:08:50;96631.59;;;-3.86;80.50
38225;BME280;24025;48.138;11.428;2022-12-18T19:11:21;96637.09;;;-3.82;80.68
38225;BME280;24025;48.138;11.428;2022-12-18T19:14:13;96632.91;;;-3.83;80.34
38225;BME280;24025;48.138;11.428;2022-12-18T19:16:44;96639.69;;;-3.82;80.34
38225;BME280;24025;48.138;11.428;2022-12-18T19:19:14;96633.41;;;-3.86;80.92
38225;BME280;24025;48.138;11.428;2022-12-18T19:21:49;96632.81;;;-3.93;80.77
38225;BME280;24025;48.138;11.428;2022-12-18T19:24:19;96633.09;;;-3.90;79.57
38225;BME280;24025;48.138;11.428;2022-12-18T19:26:50;96638.63;;;-3.86;80.69
38225;BME280;24025;48.138;11.428;2022-12-18T19:29:21;96644.78;;;-3.92;80.74
38225;BME280;24025;48.138;11.428;2022-12-18T19:31:51;96639.41;;;-3.86;79.78
38225;BME280;24025;48.138;11.428;2022-12-18T19:34:22;96640.44;;;-3.87;80.31
38225;BME280;24025;48.138;11.428;2022-12-18T19:36:52;96638.38;;;-3.85;80.61
38225;BME280;24025;48.138;11.428;2022-12-18T19:39:22;96638.66;;;-3.81;79.93
38225;BME280;24025;48.138;11.428;2022-12-18T19:41:53;96646.69;;;-3.88;79.54
38225;BME280;24025;48.138;11.428;2022-12-18T19:44:23;96643.59;;;-3.85;79.70
38225;BME280;24025;48.138;11.428;2022-12-18T19:46:54;96637.59;;;-3.85;79.76
38225;BME280;24025;48.138;11.428;2022-12-18T19:49:24;96638.91;;;-3.83;80.42
38225;BME280;24025;48.138;11.428;2022-12-18T19:51:54;96641.75;;;-3.84;80.42
38225;BME280;24025;48.138;11.428;2022-12-18T19:54:25;96638.13;;;-3.83;79.74
38225;BME280;24025;48.138;11.428;2022-12-18T19:56:55;96643.88;;;-3.81;80.10
38225;BME280;24025;48.138;11.428;2022-12-18T19:59:26;96638.13;;;-3.83;79.80
38225;BME280;24025;48.138;11.428;2022-12-18T20:01:56;96636.56;;;-3.84;79.71
38225;BME280;24025;48.138;11.428;2022-12-18T20:04:27;96639.09;;;-3.89;80.89
38225;BME280;24025;48.138;11.428;2022-12-18T20:06:57;96635.59;;;-3.78;80.35
38225;BME280;24025;48.138;11.428;2022-12-18T20:09:27;96625.97;;;-3.78;79.75
38225;BME280;24025;48.138;11.428;2022-12-18T20:11:58;96625.75;;;-3.71;79.84
38225;BME280;24025;48.138;11.428;2022-12-18T20:14:28;96618.84;;;-3.82;79.32
38225;BME280;24025;48.138;11.428;2022-12-18T20:16:59;96609.19;;;-3.87;80.13
38225;BME280;24025;48.138;11.428;2022-12-18T20:19:29;96604.22;;;-3.88;79.92
38225;BME280;24025;48.138;11.428;2022-12-18T20:22:00;96595.78;;;-3.95;79.73
38225;BME280;24025;48.138;11.428;2022-12-18T20:24:31;96596.41;;;-3.88;80.38
38225;BME280;24025;48.138;11.428;2022-12-18T20:27:01;96594.00;;;-3.90;80.02
38225;BME280;24025;48.138;11.428;2022-12-18T20:29:31;96593.06;;;-4.06;79.35
38225;BME280;24025;48.138;11.428;2022-12-18T20:32:02;96606.75;;;-3.93;80.61
38225;BME280;24025;48.138;11.428;2022-12-18T20:34:33;96608.94;;;-3.85;80.54
38225;BME280;24025;48.138;11.428;2022-12-18T20:37:03;96609.47;;;-3.83;79.95
38225;BME280;24025;48.138;11.428;2022-12-18T20:39:33;96606.94;;;-3.78;80.59
38225;BME280;24025;48.138;11.428;2022-12-18T20:42:04;96604.63;;;-3.75;80.08
38225;BME280;24025;48.138;11.428;2022-12-18T20:44:34;96607.47;;;-3.76;79.79
38225;BME280;24025;48.138;11.428;2022-12-18T20:47:05;96609.53;;;-3.78;79.10
38225;BME280;24025;48.138;11.428;2022-12-18T20:49:35;96623.34;;;-3.78;79.51
38225;BME280;24025;48.138;11.428;2022-12-18T20:52:06;96623.34;;;-3.78;79.73
38225;BME280;24025;48.138;11.428;2022-12-18T20:54:36;96611.66;;;-3.75;79.53
38225;BME280;24025;48.138;11.428;2022-12-18T20:57:07;96593.91;;;-3.78;79.65
38225;BME280;24025;48.138;11.428;2022-12-18T20:59:37;96578.81;;;-3.76;79.54
38225;BME280;24025;48.138;11.428;2022-12-18T21:02:11;96577.78;;;-3.75;80.50
38225;BME280;24025;48.138;11.428;2022-12-18T21:04:41;96580.13;;;-3.74;80.51
38225;BME280;24025;48.138;11.428;2022-12-18T21:07:11;96578.63;;;-3.69;79.59
38225;BME280;24025;48.138;11.428;2022-12-18T21:09:42;96582.06;;;-3.64;78.98
38225;BME280;24025;48.138;11.428;2022-12-18T21:12:13;96573.44;;;-3.64;79.86
38225;BME280;24025;48.138;11.428;2022-12-18T21:15:03;96576.31;;;-3.66;79.29
38225;BME280;24025;48.138;11.428;2022-12-18T21:17:34;96575.81;;;-3.63;78.97
38225;BME280;24025;48.138;11.428;2022-12-18T21:20:05;96586.09;;;-3.78;78.89
38225;BME280;24025;48.138;11.428;2022-12-18T21:22:36;96588.69;;;-3.78;79.17
38225;BME280;24025;48.138;11.428;2022-12-18T21:25:06;96577.16;;;-3.82;79.12
38225;BME280;24025;48.138;11.428;2022-12-18T21:27:37;96570.94;;;-3.81;79.91
38225;BME280;24025;48.138;11.428;2022-12-18T21:30:08;96569.34;;;-3.82;80.36
38225;BME280;24025;48.138;11.428;2022-12-18T21:32:38;96571.84;;;-3.71;79.88
38225;BME280;24025;48.138;11.428;2022-12-18T21:35:08;96575.22;;;-3.70;80.16
38225;BME280;24025;48.138;11.428;2022-12-18T21:37:39;96569.47;;;-3.72;78.61
38225;BME280;24025;48.138;11.428;2022-12-18T21:40:10;96571.53;;;-3.74;79.50
38225;BME280;24025;48.138;11.428;2022-12-18T21:42:40;96562.31;;;-3.82;79.52
38225;BME280;24025;48.138;11.428;2022-12-18T21:45:29;96556.34;;;-3.82;79.17
38225;BME280;24025;48.138;11.428;2022-12-18T21:48:00;96542.28;;;-3.81;79.37
38225;BME280;24025;48.138;11.428;2022-12-18T21:50:33;96554.50;;;-3.82;79.78
38225;BME280;24025;48.138;11.428;2022-12-18T21:53:03;96565.69;;;-3.86;79.72
38225;BME280;24025;48.138;11.428;2022-12-18T21:55:34;96570.63;;;-3.85;80.18
38225;BME280;24025;48.138;11.428;2022-12-18T21:58:04;96572.47;;;-3.85;79.64
38225;BME280;24025;48.138;11.428;2022-12-18T22:00:34;96591.22;;;-3.83;79.80
38225;BME280;24025;48.138;11.428;2022-12-18T22:03:05;96596.69;;;-3.85;79.51
38225;BME280;24025;48.138;11.428;2022-12-18T22:05:35;96588.13;;;-3.80;79.04
38225;BME280;24025;48.138;11.428;2022-12-18T22:08:06;96592.09;;;-3.78;79.64
38225;BME280;24025;48.138;11.428;2022-12-18T22:10:36;96581.22;;;-3.69;79.83
38225;BME280;24025;48.138;11.428;2022-12-18T22:13:07;96573.19;;;-3.63;79.48
38225;BME280;24025;48.138;11.428;2022-12-18T22:15:37;96571.09;;;-3.66;78.97
38225;BME280;24025;48.138;11.428;2022-12-18T22:18:11;96565.59;;;-3.69;78.63
38225;BME280;24025;48.138;11.428;2022-12-18T22:20:41;96558.50;;;-3.74;79.04
38225;BME280;24025;48.138;11.428;2022-12-18T22:23:12;96548.97;;;-3.63;79.49
38225;BME280;24025;48.138;11.428;2022-12-18T22:25:43;96549.47;;;-3.66;78.86
38225;BME280;24025;48.138;11.428;2022-12-18T22:28:13;96560.72;;;-3.61;78.59
38225;BME280;24025;48.138;11.428;2022-12-18T22:31:02;96568.31;;;-3.59;78.95
38225;BME280;24025;48.138;11.428;2022-12-18T22:33:32;96556.84;;;-3.58;78.82
38225;BME280;24025;48.138;11.428;2022-12-18T22:36:05;96557.88;;;-3.59;78.75
38225;BME280;24025;48.138;11.428;2022-12-18T22:38:35;96555.53;;;-3.61;78.11
38225;BME280;24025;48.138;11.428;2022-12-18T22:41:06;96552.34;;;-3.63;78.51
38225;BME280;24025;48.138;11.428;2022-12-18T22:43:36;96548.22;;;-3.59;78.31
38225;BME280;24025;48.138;11.428;2022-12-18T22:46:11;96552.41;;;-3.58;79.02
38225;BME280;24025;48.138;11.428;2022-12-18T22:48:44;96543.22;;;-3.65;78.45
38225;BME280;24025;48.138;11.428;2022-12-18T22:51:16;96539.75;;;-3.71;79.15
38225;BME280;24025;48.138;11.428;2022-12-18T22:53:47;96542.06;;;-3.80;78.98
38225;BME280;24025;48.138;11.428;2022-12-18T22:56:18;96548.84;;;-3.79;79.47
38225;BME280;24025;48.138;11.428;2022-12-18T22:58:49;96553.00;;;-3.78;79.20
38225;BME280;24025;48.138;11.428;2022-12-18T23:01:23;96557.19;;;-3.77;78.64
38225;BME280;24025;48.138;11.428;2022-12-18T23:03:54;96557.00;;;-3.70;78.90
38225;BME280;24025;48.138;11.428;2022-12-18T23:06:26;96554.38;;;-3.70;78.44
38225;BME280;24025;48.138;11.428;2022-12-18T23:08:57;96554.66;;;-3.66;79.00
38225;BME280;24025;48.138;11.428;2022-12-18T23:11:27;96553.63;;;-3.65;78.44
38225;BME280;24025;48.138;11.428;2022-12-18T23:13:57;96537.50;;;-3.62;78.55
38225;BME280;24025;48.138;11.428;2022-12-18T23:16:28;96527.13;;;-3.57;78.45
38225;BME280;24025;48.138;11.428;2022-12-18T23:18:58;96524.06;;;-3.49;78.69
38225;BME280;24025;48.138;11.428;2022-12-18T23:21:29;96522.75;;;-3.52;77.78
38225;BME280;24025;48.138;11.428;2022-12-18T23:24:00;96517.56;;;-3.52;78.08
38225;BME280;24025;48.138;11.428;2022-12-18T23:26:30;96505.06;;;-3.50;78.45
38225;BME280;24025;48.138;11.428;2022-12-18T23:29:01;96499.31;;;-3.47;78.22
38225;BME280;24025;48.138;11.428;2022-12-18T23:31:37;96501.34;;;-3.54;78.73
38225;BME280;24025;48.138;11.428;2022-12-18T23:34:11;96489.34;;;-3.55;78.72
38225;BME280;24025;48.138;11.428;2022-12-18T23:36:41;96481.47;;;-3.65;79.23
38225;BME280;24025;48.138;11.428;2022-12-18T23:39:13;96471.88;;;-3.59;79.64
38225;BME280;24025;48.138;11.428;2022-12-18T23:41:43;96464.06;;;-3.59;79.17
38225;BME280;24025;48.138;11.428;2022-12-18T23:44:13;96472.00;;;-3.71;79.84
38225;BME280;24025;48.138;11.428;2022-12-18T23:46:44;96490.75;;;-3.74;79.24
38225;BME280;24025;48.138;11.428;2022-12-18T23:49:14;96504.66;;;-3.63;80.53
38225;BME280;24025;48.138;11.428;2022-12-18T23:51:45;96516.97;;;-3.59;79.58
38225;BME280;24025;48.138;11.428;2022-12-18T23:54:15;96509.16;;;-3.54;79.20
38225;BME280;24025;48.138;11.428;2022-12-18T23:56:45;96506.81;;;-3.55;79.02
38225;BME280;24025;48.138;11.428;2022-12-18T23:59:16;96498.28;;;-3.51;79.53
